This is the latest recevied weather packets stored in our database for station/object IZ1UKX-13. If no packets are shown the sender has not sent any weather packets the latest 10 day(s).
| Time | Temp. | Humidity | Pressure | Rain* | Wind** | Luminosity | Snow |
|---|---|---|---|---|---|---|---|
| 1777446492 | 18.33° C | 58% | 1023.6 hPa | 0 mm | - | 0 W/m² | - |
| 1777446466 | 17.78° C | 59% | 1023.6 hPa | 0 mm | - | 0 W/m² | - |
| 1777446166 | 17.78° C | 58% | 1023.6 hPa | 0 mm | - | 0 W/m² | - |
| 1777445866 | 17.22° C | 59% | 1023.6 hPa | 0 mm | - | 0 W/m² | - |
| 1777445566 | 16.11° C | 61% | 1023.6 hPa | 0 mm | - | 0 W/m² | - |
| 1777445266 | 15.56° C | 63% | 1024 hPa | 0 mm | - | 0 W/m² | - |
| 1777444966 | 15.56° C | 63% | 1024 hPa | 0 mm | - | 0 W/m² | - |
| 1777444666 | 14.44° C | 65% | 1024 hPa | 0 mm | - | 0 W/m² | - |
| 1777444367 | 14.44° C | 65% | 1024 hPa | 0 mm | - | 0 W/m² | - |
| 1777444066 | 13.33° C | 66% | 1024.5 hPa | 0 mm | - | 0 W/m² | - |
| 1777443766 | 14.44° C | 64% | 1024 hPa | 0 mm | - | 0 W/m² | - |
| 1777443466 | 15° C | 64% | 1024 hPa | 0 mm | - | 0 W/m² | - |
| 1777443166 | 14.44° C | 65% | 1024 hPa | 0 mm | - | 0 W/m² | - |
| 1777442866 | 14.44° C | 67% | 1024 hPa | 0 mm | - | 0 W/m² | - |
| 1777442566 | 13.89° C | 70% | 1024.5 hPa | 0 mm | - | 0 W/m² | - |
| 1777442266 | 12.78° C | 73% | 1024.5 hPa | 0 mm | - | 0 W/m² | - |
| 1777441967 | 11.67° C | 78% | 1024.9 hPa | 0 mm | - | 0 W/m² | - |
| 1777441666 | 11.11° C | 82% | 1024.9 hPa | 0 mm | - | 0 W/m² | - |
| 1777441366 | 8.89° C | 87% | 1025.4 hPa | 0 mm | - | 0 W/m² | - |
| 1777441066 | 7.22° C | 90% | 1025.8 hPa | 0 mm | - | 0 W/m² | - |
| 1777440766 | 6.67° C | 90% | 1025.8 hPa | 0 mm | - | 0 W/m² | - |
| 1777440467 | 6.67° C | 90% | 1025.8 hPa | 0 mm | - | 0 W/m² | - |
| 1777440166 | 6.67° C | 90% | 1025.8 hPa | 0 mm | - | 0 W/m² | - |
| 1777439867 | 6.67° C | 90% | 1025.8 hPa | 0 mm | - | 0 W/m² | - |
| 1777439566 | 6.67° C | 90% | 1025.8 hPa | 0 mm | - | 0 W/m² | - |
* Rain latest hour (hover to see other rain measurements)
** Current wind speed in m/s (hover to see current wind gust speed)